sensor_id;sensor_type;location;lat;lon;timestamp;P1;durP1;ratioP1;P2;durP2;ratioP2
41799;SDS011;27468;47.460;19.034;2022-07-01T00:01:28;11.85;;;9.57;;
41799;SDS011;27468;47.460;19.034;2022-07-01T00:03:53;12.98;;;9.50;;
41799;SDS011;27468;47.460;19.034;2022-07-01T00:06:19;11.95;;;9.05;;
41799;SDS011;27468;47.460;19.034;2022-07-01T00:08:45;10.63;;;9.00;;
41799;SDS011;27468;47.460;19.034;2022-07-01T00:11:13;13.30;;;9.10;;
41799;SDS011;27468;47.460;19.034;2022-07-01T00:13:38;12.48;;;9.15;;
41799;SDS011;27468;47.460;19.034;2022-07-01T01:09:54;13.52;;;9.88;;
41799;SDS011;27468;47.460;19.034;2022-07-01T01:12:20;12.52;;;10.15;;
41799;SDS011;27468;47.460;19.034;2022-07-01T01:14:45;11.75;;;9.70;;
41799;SDS011;27468;47.460;19.034;2022-07-01T01:17:12;11.20;;;10.07;;
41799;SDS011;27468;47.460;19.034;2022-07-01T01:19:39;10.93;;;9.82;;
41799;SDS011;27468;47.460;19.034;2022-07-01T01:22:05;11.88;;;10.57;;
41799;SDS011;27468;47.460;19.034;2022-07-01T01:24:31;11.48;;;9.77;;
41799;SDS011;27468;47.460;19.034;2022-07-01T01:26:56;13.32;;;10.27;;
41799;SDS011;27468;47.460;19.034;2022-07-01T01:29:22;11.90;;;10.23;;
41799;SDS011;27468;47.460;19.034;2022-07-01T01:31:47;11.43;;;9.70;;
41799;SDS011;27468;47.460;19.034;2022-07-01T01:34:12;13.02;;;9.77;;
41799;SDS011;27468;47.460;19.034;2022-07-01T01:36:38;11.80;;;9.93;;
41799;SDS011;27468;47.460;19.034;2022-07-01T01:39:03;11.20;;;9.77;;
41799;SDS011;27468;47.460;19.034;2022-07-01T01:41:49;12.57;;;9.40;;
41799;SDS011;27468;47.460;19.034;2022-07-01T01:44:15;12.05;;;10.00;;
41799;SDS011;27468;47.460;19.034;2022-07-01T01:46:40;12.50;;;9.52;;
41799;SDS011;27468;47.460;19.034;2022-07-01T01:49:06;11.02;;;9.90;;
41799;SDS011;27468;47.460;19.034;2022-07-01T01:51:32;12.05;;;9.45;;
41799;SDS011;27468;47.460;19.034;2022-07-01T01:53:58;12.88;;;10.13;;
41799;SDS011;27468;47.460;19.034;2022-07-01T01:56:24;11.88;;;9.80;;
41799;SDS011;27468;47.460;19.034;2022-07-01T01:58:50;11.25;;;9.43;;
41799;SDS011;27468;47.460;19.034;2022-07-01T02:01:16;11.60;;;9.18;;
41799;SDS011;27468;47.460;19.034;2022-07-01T02:03:43;12.80;;;9.43;;
41799;SDS011;27468;47.460;19.034;2022-07-01T02:06:10;11.90;;;9.65;;
41799;SDS011;27468;47.460;19.034;2022-07-01T02:08:39;12.15;;;9.63;;
41799;SDS011;27468;47.460;19.034;2022-07-01T02:11:06;11.90;;;9.27;;
41799;SDS011;27468;47.460;19.034;2022-07-01T02:13:32;10.90;;;9.32;;
41799;SDS011;27468;47.460;19.034;2022-07-01T02:15:58;11.52;;;9.68;;
41799;SDS011;27468;47.460;19.034;2022-07-01T02:18:24;11.05;;;9.57;;
41799;SDS011;27468;47.460;19.034;2022-07-01T02:20:50;11.57;;;9.60;;
41799;SDS011;27468;47.460;19.034;2022-07-01T02:23:16;13.27;;;9.40;;
41799;SDS011;27468;47.460;19.034;2022-07-01T02:25:42;10.32;;;9.25;;
41799;SDS011;27468;47.460;19.034;2022-07-01T02:28:07;12.02;;;9.73;;
41799;SDS011;27468;47.460;19.034;2022-07-01T02:30:34;11.32;;;9.85;;
41799;SDS011;27468;47.460;19.034;2022-07-01T02:33:06;14.20;;;9.63;;
41799;SDS011;27468;47.460;19.034;2022-07-01T02:35:32;12.50;;;9.85;;
41799;SDS011;27468;47.460;19.034;2022-07-01T02:37:58;10.73;;;9.15;;
41799;SDS011;27468;47.460;19.034;2022-07-01T02:40:24;11.70;;;9.65;;
41799;SDS011;27468;47.460;19.034;2022-07-01T02:42:50;11.45;;;9.52;;
41799;SDS011;27468;47.460;19.034;2022-07-01T02:45:15;11.18;;;9.57;;
41799;SDS011;27468;47.460;19.034;2022-07-01T02:47:40;12.10;;;9.65;;
41799;SDS011;27468;47.460;19.034;2022-07-01T02:50:08;10.57;;;9.30;;
41799;SDS011;27468;47.460;19.034;2022-07-01T02:52:36;13.02;;;9.52;;
41799;SDS011;27468;47.460;19.034;2022-07-01T02:55:02;12.50;;;9.50;;
41799;SDS011;27468;47.460;19.034;2022-07-01T02:57:30;13.60;;;9.85;;
41799;SDS011;27468;47.460;19.034;2022-07-01T02:59:56;13.07;;;9.82;;
41799;SDS011;27468;47.460;19.034;2022-07-01T03:02:22;11.48;;;9.25;;
41799;SDS011;27468;47.460;19.034;2022-07-01T03:04:48;13.35;;;9.80;;
41799;SDS011;27468;47.460;19.034;2022-07-01T03:07:15;12.05;;;9.38;;
41799;SDS011;27468;47.460;19.034;2022-07-01T03:09:41;11.95;;;9.10;;
41799;SDS011;27468;47.460;19.034;2022-07-01T03:12:07;12.07;;;9.43;;
41799;SDS011;27468;47.460;19.034;2022-07-01T03:14:56;12.05;;;9.57;;
41799;SDS011;27468;47.460;19.034;2022-07-01T03:17:27;10.70;;;9.30;;
41799;SDS011;27468;47.460;19.034;2022-07-01T03:19:54;12.68;;;8.95;;
41799;SDS011;27468;47.460;19.034;2022-07-01T03:22:21;10.50;;;8.90;;
41799;SDS011;27468;47.460;19.034;2022-07-01T03:24:47;10.68;;;9.05;;
41799;SDS011;27468;47.460;19.034;2022-07-01T03:27:14;11.80;;;8.98;;
41799;SDS011;27468;47.460;19.034;2022-07-01T03:29:40;11.80;;;8.60;;
41799;SDS011;27468;47.460;19.034;2022-07-01T03:32:06;12.60;;;9.15;;
41799;SDS011;27468;47.460;19.034;2022-07-01T03:34:34;12.90;;;9.30;;
41799;SDS011;27468;47.460;19.034;2022-07-01T03:36:59;11.82;;;9.07;;
41799;SDS011;27468;47.460;19.034;2022-07-01T03:39:25;10.77;;;8.98;;
41799;SDS011;27468;47.460;19.034;2022-07-01T03:41:50;12.23;;;8.82;;
41799;SDS011;27468;47.460;19.034;2022-07-01T03:44:16;12.18;;;8.65;;
41799;SDS011;27468;47.460;19.034;2022-07-01T03:46:41;10.43;;;8.88;;
41799;SDS011;27468;47.460;19.034;2022-07-01T03:49:06;15.55;;;9.38;;
41799;SDS011;27468;47.460;19.034;2022-07-01T03:51:33;10.35;;;8.70;;
41799;SDS011;27468;47.460;19.034;2022-07-01T03:53:59;12.73;;;8.35;;
41799;SDS011;27468;47.460;19.034;2022-07-01T03:56:43;9.43;;;7.90;;
41799;SDS011;27468;47.460;19.034;2022-07-01T03:59:08;10.77;;;8.68;;
41799;SDS011;27468;47.460;19.034;2022-07-01T04:01:34;11.00;;;7.65;;
41799;SDS011;27468;47.460;19.034;2022-07-01T04:03:59;8.98;;;8.00;;
41799;SDS011;27468;47.460;19.034;2022-07-01T04:06:25;9.73;;;8.43;;
41799;SDS011;27468;47.460;19.034;2022-07-01T04:08:51;10.13;;;7.18;;
41799;SDS011;27468;47.460;19.034;2022-07-01T04:11:17;12.25;;;8.20;;
41799;SDS011;27468;47.460;19.034;2022-07-01T04:13:42;8.57;;;7.35;;
41799;SDS011;27468;47.460;19.034;2022-07-01T04:16:15;10.10;;;8.02;;
41799;SDS011;27468;47.460;19.034;2022-07-01T04:18:44;11.30;;;7.80;;
41799;SDS011;27468;47.460;19.034;2022-07-01T04:21:10;8.32;;;7.43;;
41799;SDS011;27468;47.460;19.034;2022-07-01T04:23:54;10.63;;;7.70;;
41799;SDS011;27468;47.460;19.034;2022-07-01T04:26:22;8.77;;;7.82;;
41799;SDS011;27468;47.460;19.034;2022-07-01T04:28:49;10.10;;;8.77;;
41799;SDS011;27468;47.460;19.034;2022-07-01T04:31:16;10.95;;;8.57;;
41799;SDS011;27468;47.460;19.034;2022-07-01T04:33:41;11.90;;;8.77;;
41799;SDS011;27468;47.460;19.034;2022-07-01T04:36:06;14.02;;;9.35;;
41799;SDS011;27468;47.460;19.034;2022-07-01T04:38:32;11.52;;;9.77;;
41799;SDS011;27468;47.460;19.034;2022-07-01T04:40:57;10.40;;;9.32;;
41799;SDS011;27468;47.460;19.034;2022-07-01T04:43:41;11.40;;;8.85;;
41799;SDS011;27468;47.460;19.034;2022-07-01T04:46:06;10.95;;;8.90;;
41799;SDS011;27468;47.460;19.034;2022-07-01T04:48:32;11.32;;;9.73;;
41799;SDS011;27468;47.460;19.034;2022-07-01T04:50:58;11.88;;;9.10;;
41799;SDS011;27468;47.460;19.034;2022-07-01T04:53:23;13.07;;;9.73;;
41799;SDS011;27468;47.460;19.034;2022-07-01T04:55:49;12.20;;;9.40;;
41799;SDS011;27468;47.460;19.034;2022-07-01T04:58:14;10.75;;;9.65;;
41799;SDS011;27468;47.460;19.034;2022-07-01T05:00:39;13.48;;;9.85;;
41799;SDS011;27468;47.460;19.034;2022-07-01T05:03:05;10.77;;;9.63;;
41799;SDS011;27468;47.460;19.034;2022-07-01T05:05:30;11.57;;;9.52;;
41799;SDS011;27468;47.460;19.034;2022-07-01T05:07:56;13.43;;;10.00;;
41799;SDS011;27468;47.460;19.034;2022-07-01T05:10:21;11.38;;;9.90;;
41799;SDS011;27468;47.460;19.034;2022-07-01T05:12:48;13.77;;;10.50;;
41799;SDS011;27468;47.460;19.034;2022-07-01T05:15:14;12.63;;;10.15;;
41799;SDS011;27468;47.460;19.034;2022-07-01T05:17:39;13.50;;;11.00;;
41799;SDS011;27468;47.460;19.034;2022-07-01T05:20:23;13.40;;;11.40;;
41799;SDS011;27468;47.460;19.034;2022-07-01T05:23:07;17.17;;;10.93;;
41799;SDS011;27468;47.460;19.034;2022-07-01T05:25:33;12.38;;;9.88;;
41799;SDS011;27468;47.460;19.034;2022-07-01T05:27:58;12.23;;;9.88;;
41799;SDS011;27468;47.460;19.034;2022-07-01T05:30:23;16.60;;;9.68;;
41799;SDS011;27468;47.460;19.034;2022-07-01T05:32:49;199.60;;;24.73;;
41799;SDS011;27468;47.460;19.034;2022-07-01T05:35:14;15.63;;;10.93;;
41799;SDS011;27468;47.460;19.034;2022-07-01T05:37:40;14.13;;;10.32;;
41799;SDS011;27468;47.460;19.034;2022-07-01T05:40:06;12.73;;;10.98;;
41799;SDS011;27468;47.460;19.034;2022-07-01T05:42:33;11.43;;;10.07;;
41799;SDS011;27468;47.460;19.034;2022-07-01T05:44:58;13.70;;;11.20;;
41799;SDS011;27468;47.460;19.034;2022-07-01T05:47:24;13.48;;;10.75;;
41799;SDS011;27468;47.460;19.034;2022-07-01T05:49:49;15.23;;;11.65;;
41799;SDS011;27468;47.460;19.034;2022-07-01T05:52:14;15.35;;;12.10;;
41799;SDS011;27468;47.460;19.034;2022-07-01T05:54:40;19.23;;;12.75;;
41799;SDS011;27468;47.460;19.034;2022-07-01T05:57:05;14.98;;;11.05;;
41799;SDS011;27468;47.460;19.034;2022-07-01T05:59:31;15.15;;;11.38;;
41799;SDS011;27468;47.460;19.034;2022-07-01T06:01:56;14.68;;;10.90;;
41799;SDS011;27468;47.460;19.034;2022-07-01T06:04:22;15.27;;;11.38;;
41799;SDS011;27468;47.460;19.034;2022-07-01T06:06:47;15.88;;;11.60;;
41799;SDS011;27468;47.460;19.034;2022-07-01T06:09:12;14.38;;;10.18;;
41799;SDS011;27468;47.460;19.034;2022-07-01T06:11:38;14.60;;;10.65;;
41799;SDS011;27468;47.460;19.034;2022-07-01T06:14:03;13.75;;;10.25;;
41799;SDS011;27468;47.460;19.034;2022-07-01T06:16:29;12.40;;;9.48;;
41799;SDS011;27468;47.460;19.034;2022-07-01T06:18:54;13.93;;;10.38;;
41799;SDS011;27468;47.460;19.034;2022-07-01T06:21:19;18.45;;;9.80;;
41799;SDS011;27468;47.460;19.034;2022-07-01T06:23:45;13.52;;;10.15;;
41799;SDS011;27468;47.460;19.034;2022-07-01T06:26:11;20.25;;;10.35;;
41799;SDS011;27468;47.460;19.034;2022-07-01T06:28:37;13.73;;;9.10;;
41799;SDS011;27468;47.460;19.034;2022-07-01T06:31:02;16.60;;;9.50;;
41799;SDS011;27468;47.460;19.034;2022-07-01T06:33:27;16.83;;;9.75;;
41799;SDS011;27468;47.460;19.034;2022-07-01T06:35:55;12.82;;;8.95;;
41799;SDS011;27468;47.460;19.034;2022-07-01T06:38:22;15.35;;;9.10;;
41799;SDS011;27468;47.460;19.034;2022-07-01T06:40:48;12.60;;;9.60;;
41799;SDS011;27468;47.460;19.034;2022-07-01T06:43:34;16.85;;;9.48;;
41799;SDS011;27468;47.460;19.034;2022-07-01T06:46:00;15.77;;;9.43;;
41799;SDS011;27468;47.460;19.034;2022-07-01T06:48:26;13.18;;;9.07;;
41799;SDS011;27468;47.460;19.034;2022-07-01T06:50:51;12.43;;;9.00;;
41799;SDS011;27468;47.460;19.034;2022-07-01T06:53:17;16.25;;;9.32;;
41799;SDS011;27468;47.460;19.034;2022-07-01T06:55:42;17.05;;;9.45;;
41799;SDS011;27468;47.460;19.034;2022-07-01T06:58:08;12.45;;;9.50;;
41799;SDS011;27468;47.460;19.034;2022-07-01T07:00:34;14.70;;;9.88;;
41799;SDS011;27468;47.460;19.034;2022-07-01T07:03:01;16.42;;;9.00;;
41799;SDS011;27468;47.460;19.034;2022-07-01T07:05:26;13.88;;;8.80;;
41799;SDS011;27468;47.460;19.034;2022-07-01T07:07:52;16.77;;;9.88;;
41799;SDS011;27468;47.460;19.034;2022-07-01T07:10:17;13.93;;;8.55;;
41799;SDS011;27468;47.460;19.034;2022-07-01T07:12:43;15.93;;;8.80;;
41799;SDS011;27468;47.460;19.034;2022-07-01T07:15:08;16.42;;;8.88;;
41799;SDS011;27468;47.460;19.034;2022-07-01T07:17:34;10.95;;;8.02;;
41799;SDS011;27468;47.460;19.034;2022-07-01T07:19:59;12.13;;;8.20;;
41799;SDS011;27468;47.460;19.034;2022-07-01T07:22:25;14.32;;;9.52;;
41799;SDS011;27468;47.460;19.034;2022-07-01T07:24:50;15.65;;;8.68;;
41799;SDS011;27468;47.460;19.034;2022-07-01T07:27:15;15.27;;;8.80;;
41799;SDS011;27468;47.460;19.034;2022-07-01T07:29:41;15.80;;;8.68;;
41799;SDS011;27468;47.460;19.034;2022-07-01T07:32:06;16.80;;;8.82;;
41799;SDS011;27468;47.460;19.034;2022-07-01T07:34:32;14.73;;;8.20;;
41799;SDS011;27468;47.460;19.034;2022-07-01T07:36:59;14.20;;;7.95;;
41799;SDS011;27468;47.460;19.034;2022-07-01T07:39:25;12.77;;;7.07;;
41799;SDS011;27468;47.460;19.034;2022-07-01T07:41:50;11.75;;;6.95;;
41799;SDS011;27468;47.460;19.034;2022-07-01T07:44:16;13.70;;;7.13;;
41799;SDS011;27468;47.460;19.034;2022-07-01T07:46:41;10.20;;;6.85;;
41799;SDS011;27468;47.460;19.034;2022-07-01T07:49:07;11.57;;;6.80;;
41799;SDS011;27468;47.460;19.034;2022-07-01T07:51:35;12.10;;;6.22;;
41799;SDS011;27468;47.460;19.034;2022-07-01T07:54:01;11.82;;;6.18;;
41799;SDS011;27468;47.460;19.034;2022-07-01T07:56:28;13.80;;;6.22;;
41799;SDS011;27468;47.460;19.034;2022-07-01T07:58:54;11.27;;;5.97;;
41799;SDS011;27468;47.460;19.034;2022-07-01T08:01:19;12.70;;;5.70;;
41799;SDS011;27468;47.460;19.034;2022-07-01T08:03:45;10.65;;;5.60;;
41799;SDS011;27468;47.460;19.034;2022-07-01T08:06:11;9.70;;;5.75;;
41799;SDS011;27468;47.460;19.034;2022-07-01T08:08:37;11.27;;;5.75;;
41799;SDS011;27468;47.460;19.034;2022-07-01T08:11:02;10.05;;;5.47;;
41799;SDS011;27468;47.460;19.034;2022-07-01T08:13:28;10.20;;;6.32;;
41799;SDS011;27468;47.460;19.034;2022-07-01T08:18:29;9.45;;;6.40;;
41799;SDS011;27468;47.460;19.034;2022-07-01T08:20:55;10.55;;;6.80;;
41799;SDS011;27468;47.460;19.034;2022-07-01T08:23:21;10.68;;;6.30;;
41799;SDS011;27468;47.460;19.034;2022-07-01T08:25:47;13.10;;;6.95;;
41799;SDS011;27468;47.460;19.034;2022-07-01T08:28:14;10.02;;;6.35;;
41799;SDS011;27468;47.460;19.034;2022-07-01T08:30:40;10.25;;;6.40;;
41799;SDS011;27468;47.460;19.034;2022-07-01T08:33:06;10.48;;;6.18;;
41799;SDS011;27468;47.460;19.034;2022-07-01T08:35:31;7.80;;;5.60;;
41799;SDS011;27468;47.460;19.034;2022-07-01T08:37:57;9.30;;;6.00;;
41799;SDS011;27468;47.460;19.034;2022-07-01T08:40:29;11.70;;;5.90;;
41799;SDS011;27468;47.460;19.034;2022-07-01T08:42:56;9.52;;;5.53;;
41799;SDS011;27468;47.460;19.034;2022-07-01T08:45:24;11.40;;;6.00;;
41799;SDS011;27468;47.460;19.034;2022-07-01T08:47:51;9.48;;;6.05;;
41799;SDS011;27468;47.460;19.034;2022-07-01T08:50:20;8.20;;;5.95;;
41799;SDS011;27468;47.460;19.034;2022-07-01T08:52:46;9.15;;;5.60;;
41799;SDS011;27468;47.460;19.034;2022-07-01T08:55:11;10.30;;;5.90;;
41799;SDS011;27468;47.460;19.034;2022-07-01T08:57:37;9.38;;;6.15;;
41799;SDS011;27468;47.460;19.034;2022-07-01T09:00:03;10.60;;;6.10;;
41799;SDS011;27468;47.460;19.034;2022-07-01T09:05:21;9.18;;;5.60;;
41799;SDS011;27468;47.460;19.034;2022-07-01T09:07:49;7.15;;;5.05;;
41799;SDS011;27468;47.460;19.034;2022-07-01T09:10:20;8.82;;;5.40;;
41799;SDS011;27468;47.460;19.034;2022-07-01T09:12:46;7.90;;;5.32;;
41799;SDS011;27468;47.460;19.034;2022-07-01T09:15:25;6.70;;;5.40;;
41799;SDS011;27468;47.460;19.034;2022-07-01T09:17:54;10.68;;;6.32;;
41799;SDS011;27468;47.460;19.034;2022-07-01T09:20:35;9.63;;;5.80;;
41799;SDS011;27468;47.460;19.034;2022-07-01T09:23:05;10.35;;;5.72;;
41799;SDS011;27468;47.460;19.034;2022-07-01T09:28:10;9.98;;;5.28;;
41799;SDS011;27468;47.460;19.034;2022-07-01T09:30:37;8.75;;;5.65;;
41799;SDS011;27468;47.460;19.034;2022-07-01T09:33:05;9.82;;;5.18;;
41799;SDS011;27468;47.460;19.034;2022-07-01T09:35:31;9.55;;;5.20;;
41799;SDS011;27468;47.460;19.034;2022-07-01T09:37:57;7.47;;;5.20;;
41799;SDS011;27468;47.460;19.034;2022-07-01T09:40:23;7.85;;;5.50;;
41799;SDS011;27468;47.460;19.034;2022-07-01T09:42:48;9.52;;;5.10;;
41799;SDS011;27468;47.460;19.034;2022-07-01T09:45:13;8.07;;;4.82;;
41799;SDS011;27468;47.460;19.034;2022-07-01T09:47:39;7.13;;;4.85;;
41799;SDS011;27468;47.460;19.034;2022-07-01T09:50:07;8.02;;;4.60;;
41799;SDS011;27468;47.460;19.034;2022-07-01T09:52:33;8.02;;;4.65;;
41799;SDS011;27468;47.460;19.034;2022-07-01T09:54:59;10.07;;;5.40;;
41799;SDS011;27468;47.460;19.034;2022-07-01T09:57:25;8.00;;;4.90;;
41799;SDS011;27468;47.460;19.034;2022-07-01T09:59:51;6.28;;;4.32;;
41799;SDS011;27468;47.460;19.034;2022-07-01T10:02:17;10.57;;;5.50;;
41799;SDS011;27468;47.460;19.034;2022-07-01T10:04:54;8.25;;;5.35;;
41799;SDS011;27468;47.460;19.034;2022-07-01T10:13:01;9.80;;;5.75;;
41799;SDS011;27468;47.460;19.034;2022-07-01T10:15:30;6.75;;;5.20;;
41799;SDS011;27468;47.460;19.034;2022-07-01T10:17:56;7.53;;;4.97;;
41799;SDS011;27468;47.460;19.034;2022-07-01T10:20:28;6.72;;;4.82;;
41799;SDS011;27468;47.460;19.034;2022-07-01T10:23:05;7.68;;;4.45;;
41799;SDS011;27468;47.460;19.034;2022-07-01T10:25:39;7.90;;;5.18;;
41799;SDS011;27468;47.460;19.034;2022-07-01T10:28:16;8.98;;;5.25;;
41799;SDS011;27468;47.460;19.034;2022-07-01T10:30:52;6.25;;;4.45;;
41799;SDS011;27468;47.460;19.034;2022-07-01T10:33:27;8.63;;;4.90;;
41799;SDS011;27468;47.460;19.034;2022-07-01T10:35:53;7.47;;;4.57;;
41799;SDS011;27468;47.460;19.034;2022-07-01T10:38:19;7.47;;;4.63;;
41799;SDS011;27468;47.460;19.034;2022-07-01T10:40:45;8.45;;;4.38;;
41799;SDS011;27468;47.460;19.034;2022-07-01T10:43:16;7.47;;;4.43;;
41799;SDS011;27468;47.460;19.034;2022-07-01T10:45:56;7.38;;;4.38;;
41799;SDS011;27468;47.460;19.034;2022-07-01T10:48:24;6.75;;;4.80;;
41799;SDS011;27468;47.460;19.034;2022-07-01T10:50:51;8.40;;;4.63;;
41799;SDS011;27468;47.460;19.034;2022-07-01T10:53:18;7.50;;;4.15;;
41799;SDS011;27468;47.460;19.034;2022-07-01T10:55:45;11.40;;;4.38;;
41799;SDS011;27468;47.460;19.034;2022-07-01T10:58:15;9.13;;;4.50;;
41799;SDS011;27468;47.460;19.034;2022-07-01T11:00:46;9.43;;;4.30;;
41799;SDS011;27468;47.460;19.034;2022-07-01T11:03:16;7.32;;;4.43;;
41799;SDS011;27468;47.460;19.034;2022-07-01T11:05:44;8.10;;;4.55;;
41799;SDS011;27468;47.460;19.034;2022-07-01T11:08:10;7.38;;;4.35;;
41799;SDS011;27468;47.460;19.034;2022-07-01T11:10:37;7.47;;;4.40;;
41799;SDS011;27468;47.460;19.034;2022-07-01T11:13:03;7.95;;;4.38;;
41799;SDS011;27468;47.460;19.034;2022-07-01T11:15:29;9.48;;;4.30;;
41799;SDS011;27468;47.460;19.034;2022-07-01T11:17:55;8.70;;;4.57;;
41799;SDS011;27468;47.460;19.034;2022-07-01T11:20:22;7.00;;;4.25;;
41799;SDS011;27468;47.460;19.034;2022-07-01T11:22:49;6.50;;;4.45;;
41799;SDS011;27468;47.460;19.034;2022-07-01T11:25:15;6.55;;;4.63;;
41799;SDS011;27468;47.460;19.034;2022-07-01T11:27:45;8.18;;;4.88;;
41799;SDS011;27468;47.460;19.034;2022-07-01T11:30:12;7.28;;;4.75;;
41799;SDS011;27468;47.460;19.034;2022-07-01T11:32:42;6.07;;;4.40;;
41799;SDS011;27468;47.460;19.034;2022-07-01T11:35:12;8.82;;;4.57;;
41799;SDS011;27468;47.460;19.034;2022-07-01T11:38:08;9.68;;;4.63;;
41799;SDS011;27468;47.460;19.034;2022-07-01T11:43:18;6.78;;;4.57;;
41799;SDS011;27468;47.460;19.034;2022-07-01T11:45:46;8.20;;;5.00;;
41799;SDS011;27468;47.460;19.034;2022-07-01T11:48:11;7.13;;;4.22;;
41799;SDS011;27468;47.460;19.034;2022-07-01T11:50:37;9.25;;;4.80;;
41799;SDS011;27468;47.460;19.034;2022-07-01T11:53:03;7.47;;;4.20;;
41799;SDS011;27468;47.460;19.034;2022-07-01T11:55:28;6.68;;;4.43;;
41799;SDS011;27468;47.460;19.034;2022-07-01T11:57:54;7.78;;;4.55;;
41799;SDS011;27468;47.460;19.034;2022-07-01T12:00:20;7.80;;;4.50;;
41799;SDS011;27468;47.460;19.034;2022-07-01T12:02:49;7.10;;;4.47;;
41799;SDS011;27468;47.460;19.034;2022-07-01T12:05:14;7.22;;;4.60;;
41799;SDS011;27468;47.460;19.034;2022-07-01T12:07:40;8.25;;;4.60;;
41799;SDS011;27468;47.460;19.034;2022-07-01T12:10:07;7.55;;;4.35;;
41799;SDS011;27468;47.460;19.034;2022-07-01T12:12:32;5.20;;;4.25;;
41799;SDS011;27468;47.460;19.034;2022-07-01T12:14:59;6.93;;;4.43;;
41799;SDS011;27468;47.460;19.034;2022-07-01T12:17:25;7.10;;;4.53;;
41799;SDS011;27468;47.460;19.034;2022-07-01T12:19:52;7.88;;;4.30;;
41799;SDS011;27468;47.460;19.034;2022-07-01T12:22:19;6.70;;;4.18;;
41799;SDS011;27468;47.460;19.034;2022-07-01T12:24:50;5.75;;;4.05;;
41799;SDS011;27468;47.460;19.034;2022-07-01T12:27:16;6.82;;;4.28;;
41799;SDS011;27468;47.460;19.034;2022-07-01T12:32:11;8.27;;;4.45;;
41799;SDS011;27468;47.460;19.034;2022-07-01T12:34:48;8.73;;;4.75;;
41799;SDS011;27468;47.460;19.034;2022-07-01T12:37:24;5.75;;;4.85;;
41799;SDS011;27468;47.460;19.034;2022-07-01T12:40:42;7.95;;;5.20;;
41799;SDS011;27468;47.460;19.034;2022-07-01T12:42:52;8.43;;;4.68;;
41799;SDS011;27468;47.460;19.034;2022-07-01T12:45:22;9.50;;;4.80;;
41799;SDS011;27468;47.460;19.034;2022-07-01T12:47:51;6.70;;;4.50;;
41799;SDS011;27468;47.460;19.034;2022-07-01T12:50:20;8.07;;;4.85;;
41799;SDS011;27468;47.460;19.034;2022-07-01T12:55:27;6.82;;;4.32;;
41799;SDS011;27468;47.460;19.034;2022-07-01T12:57:56;7.25;;;4.93;;
41799;SDS011;27468;47.460;19.034;2022-07-01T13:00:24;7.15;;;5.07;;
41799;SDS011;27468;47.460;19.034;2022-07-01T13:02:52;8.35;;;5.22;;
41799;SDS011;27468;47.460;19.034;2022-07-01T13:05:19;9.45;;;5.47;;
41799;SDS011;27468;47.460;19.034;2022-07-01T13:07:45;6.18;;;5.30;;
41799;SDS011;27468;47.460;19.034;2022-07-01T13:10:11;6.55;;;5.43;;
41799;SDS011;27468;47.460;19.034;2022-07-01T13:12:36;8.95;;;5.22;;
41799;SDS011;27468;47.460;19.034;2022-07-01T13:15:02;7.13;;;5.32;;
41799;SDS011;27468;47.460;19.034;2022-07-01T13:17:28;5.82;;;4.55;;
41799;SDS011;27468;47.460;19.034;2022-07-01T13:19:54;9.75;;;5.18;;
41799;SDS011;27468;47.460;19.034;2022-07-01T13:22:19;8.07;;;5.45;;
41799;SDS011;27468;47.460;19.034;2022-07-01T13:24:45;8.50;;;5.60;;
41799;SDS011;27468;47.460;19.034;2022-07-01T13:27:11;8.40;;;5.50;;
41799;SDS011;27468;47.460;19.034;2022-07-01T13:29:37;6.13;;;5.28;;
41799;SDS011;27468;47.460;19.034;2022-07-01T13:32:03;8.68;;;5.20;;
41799;SDS011;27468;47.460;19.034;2022-07-01T13:34:29;7.53;;;4.95;;
41799;SDS011;27468;47.460;19.034;2022-07-01T13:36:55;7.97;;;5.50;;
41799;SDS011;27468;47.460;19.034;2022-07-01T13:39:21;8.80;;;5.20;;
41799;SDS011;27468;47.460;19.034;2022-07-01T13:41:46;6.03;;;4.90;;
41799;SDS011;27468;47.460;19.034;2022-07-01T13:44:12;9.52;;;5.30;;
41799;SDS011;27468;47.460;19.034;2022-07-01T13:46:38;8.07;;;5.35;;
41799;SDS011;27468;47.460;19.034;2022-07-01T13:49:03;7.50;;;5.00;;
41799;SDS011;27468;47.460;19.034;2022-07-01T13:51:29;7.70;;;5.10;;
41799;SDS011;27468;47.460;19.034;2022-07-01T13:53:54;7.88;;;5.45;;
41799;SDS011;27468;47.460;19.034;2022-07-01T13:56:22;7.47;;;5.00;;
41799;SDS011;27468;47.460;19.034;2022-07-01T13:58:48;8.60;;;5.63;;
41799;SDS011;27468;47.460;19.034;2022-07-01T14:01:16;6.70;;;5.13;;
41799;SDS011;27468;47.460;19.034;2022-07-01T14:03:42;7.22;;;5.20;;
41799;SDS011;27468;47.460;19.034;2022-07-01T14:06:07;5.53;;;4.85;;
41799;SDS011;27468;47.460;19.034;2022-07-01T14:08:33;7.40;;;5.03;;
41799;SDS011;27468;47.460;19.034;2022-07-01T14:10:58;6.53;;;4.57;;
41799;SDS011;27468;47.460;19.034;2022-07-01T14:13:24;7.78;;;4.95;;
41799;SDS011;27468;47.460;19.034;2022-07-01T14:15:50;7.80;;;5.30;;
41799;SDS011;27468;47.460;19.034;2022-07-01T14:18:15;7.95;;;5.00;;
41799;SDS011;27468;47.460;19.034;2022-07-01T14:20:41;8.52;;;4.63;;
41799;SDS011;27468;47.460;19.034;2022-07-01T14:23:07;8.32;;;5.10;;
41799;SDS011;27468;47.460;19.034;2022-07-01T14:25:33;8.63;;;4.93;;
41799;SDS011;27468;47.460;19.034;2022-07-01T14:27:58;7.30;;;4.65;;
41799;SDS011;27468;47.460;19.034;2022-07-01T14:30:24;8.65;;;4.78;;
41799;SDS011;27468;47.460;19.034;2022-07-01T14:32:49;7.18;;;4.47;;
41799;SDS011;27468;47.460;19.034;2022-07-01T14:35:15;6.60;;;5.30;;
41799;SDS011;27468;47.460;19.034;2022-07-01T14:37:40;7.05;;;4.97;;
41799;SDS011;27468;47.460;19.034;2022-07-01T14:40:08;8.43;;;4.78;;
41799;SDS011;27468;47.460;19.034;2022-07-01T14:42:34;7.60;;;5.15;;
41799;SDS011;27468;47.460;19.034;2022-07-01T14:45:00;12.30;;;5.47;;
41799;SDS011;27468;47.460;19.034;2022-07-01T14:47:26;8.55;;;5.80;;
41799;SDS011;27468;47.460;19.034;2022-07-01T14:49:51;7.18;;;4.97;;
41799;SDS011;27468;47.460;19.034;2022-07-01T14:52:18;8.82;;;5.22;;
41799;SDS011;27468;47.460;19.034;2022-07-01T14:54:44;10.25;;;5.40;;
41799;SDS011;27468;47.460;19.034;2022-07-01T14:57:10;8.07;;;4.95;;
41799;SDS011;27468;47.460;19.034;2022-07-01T14:59:35;11.18;;;5.35;;
41799;SDS011;27468;47.460;19.034;2022-07-01T15:02:01;8.93;;;4.82;;
41799;SDS011;27468;47.460;19.034;2022-07-01T15:04:31;5.60;;;4.80;;
41799;SDS011;27468;47.460;19.034;2022-07-01T15:06:57;6.72;;;5.03;;
41799;SDS011;27468;47.460;19.034;2022-07-01T15:09:23;8.00;;;5.07;;
41799;SDS011;27468;47.460;19.034;2022-07-01T15:11:49;9.10;;;5.43;;
41799;SDS011;27468;47.460;19.034;2022-07-01T15:14:14;10.02;;;5.60;;
41799;SDS011;27468;47.460;19.034;2022-07-01T15:16:40;7.28;;;5.97;;
41799;SDS011;27468;47.460;19.034;2022-07-01T15:19:06;8.45;;;6.43;;
41799;SDS011;27468;47.460;19.034;2022-07-01T15:21:31;7.25;;;4.65;;
41799;SDS011;27468;47.460;19.034;2022-07-01T15:23:58;6.35;;;4.97;;
41799;SDS011;27468;47.460;19.034;2022-07-01T15:26:24;8.30;;;5.90;;
41799;SDS011;27468;47.460;19.034;2022-07-01T15:28:50;8.13;;;5.78;;
41799;SDS011;27468;47.460;19.034;2022-07-01T15:31:16;7.35;;;5.07;;
41799;SDS011;27468;47.460;19.034;2022-07-01T15:33:42;7.95;;;5.57;;
41799;SDS011;27468;47.460;19.034;2022-07-01T15:36:08;9.18;;;5.70;;
41799;SDS011;27468;47.460;19.034;2022-07-01T15:38:35;6.95;;;5.57;;
41799;SDS011;27468;47.460;19.034;2022-07-01T15:41:01;11.13;;;6.13;;